Terminal Aerodrome Forecast
Issued by NWS Bismarck, ND

Home | Current Version | Previous Version | Text Only | Print | Product List | Glossary On
Versions: 1 2 3 4 5 6 7 8 9 10 11 12 13 14 15 16 17 18 19
000
FTUS43 KBIS 221300 AAA
TAFBIS
TAF AMD
KBIS 221304Z 2213/2312 04005KT P6SM VCSH OVC008
      TEMPO 2213/2215 3SM -RA BR BKN005 OVC012
     FM221500 03006KT P6SM OVC015
     FM221800 04007KT P6SM VCTS BKN035CB
     FM230600 05011KT P6SM SHRA OVC040=

USA.gov is the U.S. government's official web portal to all federal, state and local government web resources and services.